Time;durP1;ratioP1;P1;durP2;ratioP2;P2;SDS_P1;SDS_P2;PMS_P1;PMS_P2;Temp;Humidity;BMP_temperature;BMP_pressure;BME280_temperature;BME280_humidity;BME280_pressure;Samples;Min_cycle;Max_cycle;Signal;HPM_P1;HPM_P2
2022/02/11 00:06:54;;;;;;;5.63;3.63;;;;;;;-1.34;82.54;96106.36;1698416;84;21571;-84
2022/02/11 00:09:10;;;;;;;5.60;3.17;;;;;;;-1.33;82.31;96104.25;1696329;84;21027;-83
2022/02/11 00:11:40;;;;;;;5.63;2.50;;;;;;;-1.39;82.50;96104.89;1698574;84;21030;-84
2022/02/11 00:14:10;;;;;;;4.03;2.60;;;;;;;-1.37;82.63;96104.95;1698465;84;21122;-84
2022/02/11 00:16:40;;;;;;;3.90;2.50;;;;;;;-1.34;82.65;96108.52;1698517;84;21038;-84
2022/02/11 00:19:07;;;;;;;4.13;2.30;;;;;;;-1.26;82.46;96116.98;1698539;84;21456;-84
2022/02/11 00:21:34;;;;;;;4.30;2.53;;;;;;;-1.21;82.84;96112.45;1698317;84;21038;-83
2022/02/11 00:24:01;;;;;;;6.40;3.50;;;;;;;-1.17;82.72;96106.53;1698610;84;21134;-77
2022/02/11 00:26:34;;;;;;;6.30;2.43;;;;;;;-1.11;83.25;96108.44;1698444;84;21026;-84
2022/02/11 00:31:53;;;;;;;4.53;2.87;;;;;;;-1.09;82.31;96095.14;1698550;84;21036;-86
2022/02/11 00:34:09;;;;;;;5.03;3.03;;;;;;;-1.12;82.24;96079.08;1696379;84;21095;-86
2022/02/11 00:36:44;;;;;;;24.80;14.07;;;;;;;-1.08;82.85;96072.32;1698038;84;21058;-86
2022/02/11 00:39:41;;;;;;;15.77;9.77;;;;;;;-1.18;82.04;96081.48;1697176;84;20998;-86
2022/02/11 00:53:40;;;;;;;10.77;7.07;;;;;;;-1.42;83.00;96087.97;1698451;84;21042;-84
2022/02/11 01:03:17;;;;;;;7.10;4.53;;;;;;;-1.38;82.56;96092.44;1690016;85;21046;-85
2022/02/11 01:05:36;;;;;;;8.83;5.30;;;;;;;-1.39;82.78;96089.78;1688694;85;21453;-83
2022/02/11 01:08:03;;;;;;;11.50;7.67;;;;;;;-1.43;82.86;96086.22;1690321;85;20996;-83
2022/02/11 01:10:32;;;;;;;12.80;8.07;;;;;;;-1.49;82.45;96078.64;1690301;85;21014;-83
2022/02/11 01:12:58;;;;;;;7.33;5.07;;;;;;;-1.55;82.97;96088.37;1690301;85;21039;-83
2022/02/11 01:15:27;;;;;;;6.53;4.50;;;;;;;-1.52;83.11;96090.64;1690198;85;21051;-83
2022/02/11 01:17:58;;;;;;;12.30;8.67;;;;;;;-1.44;83.59;96087.45;1689998;85;21023;-83
2022/02/11 01:30:57;;;;;;;9.10;4.93;;;;;;;-1.71;83.47;96071.81;1690216;85;21489;-86
2022/02/11 01:44:11;;;;;;;9.40;5.27;;;;;;;-1.40;83.15;96061.73;1690164;85;21485;-83
2022/02/11 01:54:31;;;;;;;9.60;5.00;;;;;;;-1.53;83.76;96047.48;1690222;85;21142;-85
2022/02/11 01:57:05;;;;;;;7.87;5.40;;;;;;;-1.57;84.57;96053.79;1685562;85;21038;-86
2022/02/11 01:59:54;;;;;;;10.87;7.20;;;;;;;-1.55;84.38;96053.02;1688784;85;21110;-86
2022/02/11 02:02:35;;;;;;;10.50;6.50;;;;;;;-1.61;84.07;96048.06;1686148;85;21047;-87
2022/02/11 02:26:11;;;;;;;22.90;11.87;;;;;;;-1.63;84.24;96061.34;1690284;85;21043;-86
2022/02/11 02:58:09;;;;;;;11.33;6.33;;;;;;;-1.94;84.26;96053.78;1690190;85;20983;-84
2022/02/11 03:17:37;;;;;;;18.87;11.90;;;;;;;-2.13;83.64;96052.63;1690406;85;21047;-83
2022/02/11 03:49:40;;;;;;;30.30;17.70;;;;;;;-2.21;84.13;96051.92;1690047;85;21518;-82
2022/02/11 03:57:24;;;;;;;25.05;16.87;;;;;;;-2.28;83.81;96055.52;1690409;85;21043;-82
2022/02/11 04:56:43;;;;;;;134.83;55.20;;;;;;;-1.18;84.29;96002.51;1689977;85;21545;-78
2022/02/11 05:01:53;;;;;;;40.60;19.87;;;;;;;-1.18;83.89;96012.86;1689925;84;21039;-78
2022/02/11 05:04:20;;;;;;;85.67;34.20;;;;;;;-1.18;83.97;96007.69;1690232;85;21536;-78
2022/02/11 05:06:47;;;;;;;52.60;20.50;;;;;;;-1.13;84.20;96011.31;1690106;85;21019;-78
2022/02/11 05:09:13;;;;;;;30.33;14.00;;;;;;;-1.08;84.18;96001.10;1689967;85;21086;-79
2022/02/11 05:11:40;;;;;;;59.70;29.47;;;;;;;-1.02;84.99;96013.36;1690422;85;20987;-80
2022/02/11 05:14:06;;;;;;;57.20;27.13;;;;;;;-1.03;84.74;96007.70;1690225;85;21031;-80
2022/02/11 05:16:34;;;;;;;65.27;34.97;;;;;;;-1.09;84.58;96009.69;1690190;85;21042;-79
2022/02/11 05:19:00;;;;;;;88.90;43.97;;;;;;;-1.05;84.90;96009.39;1690077;85;21074;-80
2022/02/11 05:21:27;;;;;;;62.03;32.47;;;;;;;-1.07;84.58;96012.34;1690063;85;21106;-78
2022/02/11 05:23:54;;;;;;;54.47;31.07;;;;;;;-0.99;84.59;96012.16;1689938;85;21118;-79
2022/02/11 05:26:20;;;;;;;45.90;27.20;;;;;;;-1.03;84.53;96007.31;1690109;85;21481;-78
2022/02/11 05:28:47;;;;;;;62.80;36.47;;;;;;;-1.05;84.87;96012.85;1690058;85;21107;-78
2022/02/11 05:31:13;;;;;;;46.43;28.33;;;;;;;-1.05;84.80;96005.08;1690305;85;21058;-79
2022/02/11 05:33:40;;;;;;;28.87;16.53;;;;;;;-1.13;84.55;96011.31;1689986;85;21015;-79
2022/02/11 05:36:06;;;;;;;21.23;12.33;;;;;;;-1.06;85.00;96005.02;1690302;85;21469;-79
2022/02/11 05:38:33;;;;;;;9.10;5.83;;;;;;;-1.00;84.92;96016.89;1689812;85;21051;-78
2022/02/11 05:41:00;;;;;;;9.40;5.13;;;;;;;-0.90;85.10;96009.45;1690024;85;21035;-78
2022/02/11 05:43:27;;;;;;;16.97;7.97;;;;;;;-0.80;85.00;96007.17;1690180;85;21026;-78
2022/02/11 05:45:53;;;;;;;17.90;10.97;;;;;;;-0.74;84.97;96012.53;1690292;85;21106;-78
2022/02/11 05:48:20;;;;;;;22.07;12.50;;;;;;;-0.69;85.06;96014.84;1690039;85;21027;-78
2022/02/11 05:50:46;;;;;;;43.83;20.70;;;;;;;-0.71;84.34;96019.09;1690283;84;21018;-79
2022/02/11 05:53:12;;;;;;;15.30;7.50;;;;;;;-0.71;84.55;96019.97;1690321;84;20992;-78
2022/02/11 05:55:40;;;;;;;18.80;7.57;;;;;;;-0.64;84.87;96031.42;1690098;85;20987;-78
2022/02/11 05:58:06;;;;;;;8.63;3.80;;;;;;;-0.60;84.60;96026.81;1690178;85;21003;-78
2022/02/11 06:00:33;;;;;;;8.40;4.20;;;;;;;-0.53;84.68;96025.27;1689873;85;21031;-77
2022/02/11 06:02:59;;;;;;;8.17;4.13;;;;;;;-0.41;84.74;96023.05;1694469;85;21121;-77
2022/02/11 06:05:26;;;;;;;5.60;3.83;;;;;;;-0.36;84.62;96024.49;1694882;85;21039;-80
2022/02/11 06:07:53;;;;;;;15.87;8.20;;;;;;;-0.29;84.55;96030.33;1694107;85;21050;-78
2022/02/11 06:10:19;;;;;;;22.10;9.83;;;;;;;-0.26;83.85;96030.41;1693970;85;21142;-82
2022/02/11 06:12:46;;;;;;;7.40;4.43;;;;;;;-0.20;83.91;96030.62;1693755;85;21129;-91
2022/02/11 06:15:12;;;;;;;14.83;9.67;;;;;;;-0.16;83.95;96033.74;1694658;84;20995;-82
2022/02/11 06:17:39;;;;;;;72.23;35.53;;;;;;;-0.15;83.67;96042.39;1695460;84;21449;-76
2022/02/11 06:20:08;;;;;;;56.90;27.47;;;;;;;-0.19;82.74;96033.66;1695362;85;21078;-85
2022/02/11 06:22:35;;;;;;;9.37;5.43;;;;;;;-0.26;82.90;96039.07;1694435;84;21097;-76
2022/02/11 06:25:01;;;;;;;46.27;21.43;;;;;;;-0.25;82.90;96037.37;1693801;85;21042;-77
2022/02/11 06:27:28;;;;;;;58.23;30.57;;;;;;;-0.23;83.53;96044.77;1694575;85;21077;-77
2022/02/11 06:29:54;;;;;;;48.13;28.40;;;;;;;-0.15;83.57;96052.38;1694731;85;21054;-76
2022/02/11 06:32:21;;;;;;;62.57;33.90;;;;;;;-0.10;83.73;96046.91;1694093;84;21141;-76
2022/02/11 06:34:49;;;;;;;7.67;4.00;;;;;;;-0.06;83.75;96053.05;1693504;85;21145;-82
2022/02/11 06:37:16;;;;;;;55.10;28.07;;;;;;;0.00;83.70;96049.36;1694135;84;21537;-79
2022/02/11 06:39:42;;;;;;;55.40;29.07;;;;;;;0.12;83.91;96052.70;1695063;85;21101;-73
2022/02/11 06:42:09;;;;;;;89.03;39.63;;;;;;;0.17;83.26;96043.34;1695221;85;21069;-79
2022/02/11 06:44:35;;;;;;;15.03;7.53;;;;;;;0.22;83.47;96049.54;1695376;85;21033;-78
2022/02/11 06:47:02;;;;;;;10.70;5.77;;;;;;;0.32;83.62;96048.95;1695072;85;21074;-74
2022/02/11 06:49:31;;;;;;;172.67;84.00;;;;;;;0.47;83.62;96046.34;1694683;85;21515;-78
2022/02/11 06:51:57;;;;;;;93.77;46.63;;;;;;;0.50;83.04;96049.02;1693636;85;21046;-78
2022/02/11 06:54:24;;;;;;;84.33;45.20;;;;;;;0.58;83.16;96048.40;1694502;85;21118;-77
2022/02/11 06:56:51;;;;;;;110.40;54.70;;;;;;;0.71;83.19;96053.50;1694584;85;22239;-84
2022/02/11 06:59:17;;;;;;;124.30;63.03;;;;;;;0.82;83.22;96049.45;1695205;85;21046;-78
2022/02/11 07:01:44;;;;;;;41.20;19.03;;;;;;;0.93;82.93;96056.64;1693147;85;21541;-78
2022/02/11 07:04:10;;;;;;;90.63;47.90;;;;;;;1.00;82.30;96055.97;1688987;85;21109;-76
2022/02/11 07:06:37;;;;;;;42.10;21.27;;;;;;;1.07;82.36;96061.36;1689383;85;21086;-76
2022/02/11 07:09:04;;;;;;;100.07;49.60;;;;;;;1.21;82.72;96057.82;1689803;84;21046;-79
2022/02/11 07:11:31;;;;;;;120.67;63.97;;;;;;;1.39;82.77;96050.02;1690057;85;21066;-75
2022/02/11 07:13:58;;;;;;;69.77;40.70;;;;;;;1.57;82.53;96046.97;1689326;85;21114;-72
2022/02/11 07:16:24;;;;;;;79.10;45.43;;;;;;;1.78;82.48;96051.77;1662864;85;21039;-72
2022/02/11 07:18:51;;;;;;;99.53;54.20;;;;;;;1.97;82.44;96051.78;1690060;85;21504;-72
2022/02/11 07:21:17;;;;;;;126.30;69.40;;;;;;;2.13;81.63;96048.21;1689463;85;21090;-73
2022/02/11 07:23:44;;;;;;;89.00;49.43;;;;;;;2.28;81.70;96045.48;1689260;84;21643;-73
2022/02/11 07:26:10;;;;;;;86.63;49.70;;;;;;;2.44;81.53;96034.51;1689197;85;21122;-73
2022/02/11 07:28:37;;;;;;;87.03;49.27;;;;;;;2.57;81.13;96042.14;1689419;85;21050;-75
2022/02/11 07:31:04;;;;;;;44.37;25.30;;;;;;;2.69;80.67;96033.26;1689170;84;21082;-72
2022/02/11 07:33:31;;;;;;;78.80;43.53;;;;;;;2.82;80.43;96023.94;1689204;85;21102;-71
2022/02/11 07:35:57;;;;;;;21.80;14.03;;;;;;;2.92;79.16;96030.20;1689833;84;21062;-72
2022/02/11 07:38:23;;;;;;;46.33;26.70;;;;;;;3.06;79.36;96030.03;1688747;85;21569;-72
2022/02/11 07:40:51;;;;;;;33.20;17.80;;;;;;;3.15;78.26;96034.11;1689422;85;21082;-71
2022/02/11 07:43:17;;;;;;;57.53;38.27;;;;;;;3.35;76.96;96027.92;1689601;85;21086;-73
2022/02/11 07:45:43;;;;;;;53.10;28.80;;;;;;;3.57;77.29;96026.94;1689221;84;21365;-73
2022/02/11 07:48:10;;;;;;;13.73;7.10;;;;;;;3.84;73.50;96012.98;1689676;85;21035;-70
2022/02/11 07:50:38;;;;;;;39.83;23.70;;;;;;;4.31;68.62;96017.11;1690161;85;21073;-72
2022/02/11 07:53:04;;;;;;;11.77;7.37;;;;;;;4.80;65.91;96016.78;1689898;85;21106;-74
2022/02/11 07:55:30;;;;;;;13.63;8.13;;;;;;;5.17;63.70;96023.25;1690412;85;21018;-73
2022/02/11 07:57:57;;;;;;;72.13;42.73;;;;;;;5.42;66.47;96026.52;1689296;85;21031;-73
2022/02/11 08:00:23;;;;;;;11.03;7.20;;;;;;;5.50;65.76;96025.27;1689649;85;21089;-72
2022/02/11 08:02:50;;;;;;;6.00;3.87;;;;;;;5.67;61.41;96031.05;1689381;84;21089;-71
2022/02/11 08:05:16;;;;;;;7.63;3.97;;;;;;;5.86;60.45;96030.33;1689915;85;21564;-69
2022/02/11 08:07:44;;;;;;;7.53;4.30;;;;;;;6.16;57.45;96027.05;1688969;85;21086;-70
2022/02/11 08:10:12;;;;;;;5.23;2.90;;;;;;;6.32;61.64;96038.48;1688732;85;21078;-68
2022/02/11 08:12:39;;;;;;;6.70;3.43;;;;;;;6.46;58.04;96035.50;1690226;85;21531;-70
2022/02/11 08:15:07;;;;;;;4.60;3.40;;;;;;;6.64;57.95;96029.89;1690232;85;21019;-69
2022/02/11 08:17:34;;;;;;;5.80;4.10;;;;;;;6.82;55.64;96027.31;1690071;85;21035;-72
2022/02/11 08:20:01;;;;;;;6.23;4.07;;;;;;;6.93;56.08;96023.44;1689588;85;21003;-73
2022/02/11 08:22:28;;;;;;;6.00;3.10;;;;;;;7.02;54.93;96018.62;1689496;83;21043;-70
2022/02/11 08:24:54;;;;;;;6.27;4.03;;;;;;;7.17;54.82;96030.46;1690304;85;21071;-71
2022/02/11 08:27:21;;;;;;;5.83;3.20;;;;;;;7.30;51.86;96026.97;1691478;84;21087;-73
2022/02/11 08:29:47;;;;;;;5.83;3.60;;;;;;;7.43;52.02;96030.92;1689810;84;21065;-72
2022/02/11 08:32:14;;;;;;;21.60;14.07;;;;;;;7.52;52.36;96032.25;1703440;84;21023;-70
2022/02/11 08:34:41;;;;;;;6.13;3.47;;;;;;;7.60;52.04;96031.81;1703544;84;20975;-68
2022/02/11 08:37:08;;;;;;;4.60;2.90;;;;;;;7.74;51.13;96039.70;1720414;83;21749;-70
2022/02/11 08:39:38;;;;;;;7.40;4.03;;;;;;;7.84;52.44;96036.60;1700421;84;21473;-70
2022/02/11 08:42:03;;;;;;;3.77;2.77;;;;;;;7.91;54.40;96034.41;1708617;84;21119;-71
2022/02/11 08:44:30;;;;;;;6.00;2.90;;;;;;;7.97;53.41;96039.23;1708898;83;21113;-67
2022/02/11 08:46:57;;;;;;;6.33;4.13;;;;;;;8.03;48.80;96033.08;1709445;83;21086;-70
2022/02/11 08:49:23;;;;;;;8.27;5.43;;;;;;;8.10;50.42;96033.95;1709886;84;21010;-71
2022/02/11 08:51:50;;;;;;;10.23;7.57;;;;;;;8.17;50.17;96037.88;1708747;83;21027;-70
2022/02/11 08:54:17;;;;;;;9.97;6.37;;;;;;;8.25;48.54;96036.55;1710142;84;22250;-69
2022/02/11 08:56:43;;;;;;;6.53;4.87;;;;;;;8.34;50.45;96038.27;1709011;84;21007;-71
2022/02/11 08:59:09;;;;;;;4.97;3.13;;;;;;;8.44;48.46;96051.44;1709788;84;21058;-70
2022/02/11 09:01:36;;;;;;;4.97;2.83;;;;;;;8.48;46.63;96044.84;1708846;83;21556;-71
2022/02/11 09:04:03;;;;;;;4.67;3.10;;;;;;;8.52;46.80;96054.05;1716432;83;20994;-70
2022/02/11 09:06:29;;;;;;;6.97;3.30;;;;;;;8.60;48.18;96050.07;1717478;83;21050;-70
2022/02/11 09:08:56;;;;;;;3.73;2.73;;;;;;;8.65;46.78;96046.53;1722302;83;20983;-72
2022/02/11 09:11:22;;;;;;;3.00;2.23;;;;;;;8.66;45.82;96052.66;1721771;83;21078;-72
2022/02/11 09:13:51;;;;;;;3.40;2.73;;;;;;;8.68;45.03;96064.06;1724351;83;21492;-72
2022/02/11 09:16:21;;;;;;;5.73;3.47;;;;;;;8.74;46.02;96060.53;1723383;83;21551;-75
2022/02/11 09:18:48;;;;;;;6.57;3.40;;;;;;;8.77;47.26;96049.56;1723535;83;21006;-73
2022/02/11 09:21:14;;;;;;;6.47;3.30;;;;;;;8.82;47.08;96055.69;1723249;83;21062;-78
2022/02/11 09:23:41;;;;;;;6.90;4.50;;;;;;;8.87;45.84;96053.91;1723499;82;21961;-82
2022/02/11 09:26:08;;;;;;;6.10;3.30;;;;;;;8.92;46.47;96052.98;1723524;83;21011;-71
2022/02/11 09:28:35;;;;;;;4.77;3.00;;;;;;;8.99;46.25;96055.58;1724374;82;21006;-78
2022/02/11 09:31:02;;;;;;;5.83;4.10;;;;;;;9.10;48.24;96052.47;1724194;83;21407;-75
2022/02/11 09:33:30;;;;;;;5.93;3.00;;;;;;;9.19;46.54;96050.20;1724046;83;21054;-81
2022/02/11 09:35:56;;;;;;;4.83;3.03;;;;;;;9.21;46.03;96050.21;1724033;82;21062;-72
2022/02/11 09:38:23;;;;;;;6.87;3.37;;;;;;;9.22;46.32;96052.84;1724144;82;21038;-76
2022/02/11 09:40:51;;;;;;;4.60;3.03;;;;;;;9.23;45.27;96040.11;1722748;83;21125;-77
2022/02/11 09:43:22;;;;;;;6.33;4.00;;;;;;;9.15;44.68;96056.40;1718813;83;21021;-72
2022/02/11 09:45:49;;;;;;;3.83;2.83;;;;;;;9.29;46.60;96053.66;1714077;83;21312;-70
2022/02/11 09:48:17;;;;;;;4.63;2.43;;;;;;;9.39;45.16;96051.41;1688155;83;20982;-75
2022/02/11 09:50:44;;;;;;;6.57;3.90;;;;;;;9.43;44.97;96054.46;1718214;83;20975;-71
2022/02/11 09:53:13;;;;;;;5.67;3.07;;;;;;;9.47;45.62;96047.40;1719111;83;20991;-74
2022/02/11 09:55:43;;;;;;;6.53;4.13;;;;;;;9.53;44.34;96048.69;1716482;83;21006;-73
2022/02/11 09:58:15;;;;;;;5.40;3.57;;;;;;;9.62;45.64;96051.23;1718326;83;21069;-75
2022/02/11 10:00:48;;;;;;;5.30;3.17;;;;;;;9.70;45.08;96045.91;1712591;83;21007;-72
2022/02/11 10:03:26;;;;;;;5.23;3.50;;;;;;;9.80;45.27;96043.63;1722842;83;21065;-74
2022/02/11 10:06:05;;;;;;;5.63;3.27;;;;;;;9.87;45.29;96035.23;1736711;83;21528;-74
2022/02/11 10:08:36;;;;;;;6.83;3.20;;;;;;;9.90;44.42;96033.88;1705047;84;21407;-76
2022/02/11 10:11:05;;;;;;;5.62;3.33;;;;;;;9.89;44.88;96030.37;1705330;83;21073;-76
2022/02/11 10:13:35;;;;;;;8.00;3.22;;;;;;;10.01;45.59;96032.48;1705802;83;21043;-76
2022/02/11 10:16:09;;;;;;;4.87;2.90;;;;;;;10.11;44.57;96031.06;1706065;83;21003;-74
2022/02/11 10:18:42;;;;;;;5.10;3.27;;;;;;;10.22;44.75;96029.63;1704975;84;21061;-75
2022/02/11 10:21:12;;;;;;;5.33;3.85;;;;;;;10.30;43.97;96017.26;1736403;83;21583;-75
2022/02/11 10:23:42;;;;;;;7.25;3.10;;;;;;;10.29;42.59;96019.48;1705895;84;21014;-75
2022/02/11 10:26:13;;;;;;;6.60;3.55;;;;;;;10.33;43.47;96017.25;1706086;84;21093;-75
2022/02/11 10:28:47;;;;;;;4.87;2.60;;;;;;;10.54;45.42;96008.66;1705632;84;21125;-75
2022/02/11 10:31:19;;;;;;;6.62;3.25;;;;;;;10.67;43.42;96007.61;1703313;84;21429;-76
2022/02/11 10:34:06;;;;;;;10.32;6.72;;;;;;;10.82;42.76;95999.95;1704895;83;21544;-76
2022/02/11 10:36:48;;;;;;;5.17;3.25;;;;;;;11.19;42.45;96005.60;1733582;83;20991;-75
2022/02/11 10:39:27;;;;;;;5.10;2.83;;;;;;;11.61;40.88;96007.14;1722460;83;20997;-74
2022/02/11 10:41:58;;;;;;;5.28;2.80;;;;;;;11.82;39.06;96006.41;1737547;82;21070;-75
2022/02/11 10:44:29;;;;;;;4.78;3.08;;;;;;;11.98;39.35;95992.48;1706855;84;21042;-76
2022/02/11 10:47:03;;;;;;;5.78;3.10;;;;;;;12.28;38.83;95985.77;1706930;84;21070;-76
2022/02/11 10:49:37;;;;;;;4.80;3.58;;;;;;;12.62;39.29;95977.15;1706982;84;21023;-76
2022/02/11 10:52:17;;;;;;;8.13;3.30;;;;;;;12.92;38.78;95991.06;1706836;84;21026;-76
2022/02/11 10:54:51;;;;;;;5.70;2.85;;;;;;;13.19;38.07;95982.11;1706832;84;20990;-75
2022/02/11 10:57:25;;;;;;;6.35;3.50;;;;;;;13.36;36.72;95977.79;1706638;84;21014;-76
2022/02/11 10:59:51;;;;;;;7.05;4.50;;;;;;;13.75;37.76;95975.94;1737233;83;21542;-76
2022/02/11 11:02:21;;;;;;;7.75;5.37;;;;;;;14.12;37.21;95975.47;1737216;83;21129;-77
2022/02/11 11:04:52;;;;;;;6.70;3.20;;;;;;;14.05;34.59;95976.94;1693796;84;21020;-78
2022/02/11 11:07:28;;;;;;;6.17;3.22;;;;;;;14.43;35.35;95966.20;1694435;84;21074;-77
2022/02/11 11:09:56;;;;;;;5.62;3.85;;;;;;;14.72;35.77;95960.11;1694119;84;21054;-76
2022/02/11 11:12:26;;;;;;;7.28;3.67;;;;;;;14.57;35.14;95956.11;1694283;84;21035;-76
2022/02/11 11:14:57;;;;;;;5.87;4.30;;;;;;;14.82;33.83;95960.26;1694312;84;21477;-80
2022/02/11 11:17:26;;;;;;;5.30;3.90;;;;;;;14.97;34.18;95968.67;1694023;84;21535;-77
2022/02/11 11:19:55;;;;;;;8.08;5.37;;;;;;;15.37;33.60;95957.68;1694258;84;21007;-77
2022/02/11 11:22:33;;;;;;;6.70;3.80;;;;;;;15.42;34.65;95958.44;1716504;83;21019;-77
2022/02/11 11:25:06;;;;;;;7.37;4.10;;;;;;;15.20;33.98;95955.58;1716954;81;20992;-77
2022/02/11 11:27:45;;;;;;;5.78;4.75;;;;;;;15.42;33.69;95962.86;1716453;84;20995;-77
2022/02/11 11:30:40;;;;;;;5.75;4.05;;;;;;;15.81;33.78;95962.54;1686562;84;21023;-77
2022/02/11 11:33:12;;;;;;;5.12;3.80;;;;;;;15.52;32.85;95958.98;1716198;83;21036;-76
2022/02/11 11:35:50;;;;;;;5.40;3.35;;;;;;;15.90;33.77;95953.80;1716556;84;21051;-76
2022/02/11 11:38:21;;;;;;;6.95;3.80;;;;;;;15.86;32.43;95956.13;1716378;83;21008;-77
2022/02/11 11:41:04;;;;;;;5.73;4.07;;;;;;;15.10;32.89;95960.77;1716341;84;21007;-77
2022/02/11 11:43:37;;;;;;;6.00;3.50;;;;;;;14.62;33.02;95960.83;1716552;83;21549;-76
2022/02/11 11:46:21;;;;;;;5.37;3.47;;;;;;;14.20;34.94;95965.51;1716493;83;21058;-77
2022/02/11 11:48:57;;;;;;;4.42;3.58;;;;;;;13.77;35.64;95971.47;1716708;84;21031;-76
2022/02/11 11:51:27;;;;;;;6.08;4.17;;;;;;;13.11;36.28;95978.77;1716581;83;21007;-76
2022/02/11 11:54:21;;;;;;;7.17;5.42;;;;;;;12.95;38.45;95975.13;1715129;84;21525;-75
2022/02/11 11:57:05;;;;;;;9.45;8.45;;;;;;;12.28;38.34;95979.15;1701619;84;21043;-77
2022/02/11 11:59:50;;;;;;;5.87;3.62;;;;;;;12.28;38.34;95979.15;1715781;84;21047;-74
2022/02/11 12:02:26;;;;;;;6.45;3.37;;;;;;;12.10;38.22;95972.44;1716846;83;21485;-83
2022/02/11 12:04:59;;;;;;;4.55;2.75;;;;;;;11.63;39.04;95969.67;1724261;83;21551;-74
2022/02/11 12:07:35;;;;;;;5.08;2.90;;;;;;;11.24;40.89;95969.43;1724295;83;21034;-78
2022/02/11 12:10:06;;;;;;;6.37;3.25;;;;;;;11.53;40.07;95964.58;1724199;82;21014;-77
2022/02/11 12:12:39;;;;;;;4.33;2.70;;;;;;;12.12;40.58;95959.60;1724437;83;21026;-76
2022/02/11 12:15:07;;;;;;;3.35;2.77;;;;;;;12.78;37.95;95956.08;1724402;81;21016;-76
2022/02/11 12:17:34;;;;;;;5.70;3.10;;;;;;;13.12;37.65;95959.30;1724332;83;21457;-75
2022/02/11 12:20:03;;;;;;;6.95;3.52;;;;;;;13.49;37.54;95958.48;1724244;82;21608;-74
2022/02/11 12:22:31;;;;;;;8.93;3.85;;;;;;;13.46;37.59;95953.27;1724354;83;21091;-75
2022/02/11 12:27:49;;;;;;;10.68;5.17;;;;;;;13.08;38.47;95945.69;1723973;83;21023;-77
2022/02/11 12:30:23;;;;;;;9.85;5.60;;;;;;;13.26;38.29;95948.41;1724347;83;21468;-76
2022/02/11 12:32:56;;;;;;;;;;;;;;;13.84;36.43;95936.39;1727301;82;21015;-74
2022/02/11 12:35:31;;;;;;;6.93;4.53;;;;;;;14.46;35.89;95931.16;1724264;82;20134;-73
2022/02/11 12:38:02;;;;;;;10.78;5.47;;;;;;;14.99;34.87;95925.66;1724326;82;20992;-74
2022/02/11 12:40:33;;;;;;;11.10;6.72;;;;;;;15.15;34.01;95929.13;1724368;82;21002;-73
2022/02/11 12:43:04;;;;;;;10.40;5.50;;;;;;;14.97;34.54;95928.38;1723579;83;21038;-74
2022/02/11 12:45:38;;;;;;;7.70;4.70;;;;;;;15.03;33.71;95925.52;1724413;83;21015;-74
2022/02/11 12:48:13;;;;;;;8.10;5.45;;;;;;;15.27;33.43;95925.23;1724317;82;21536;-74
2022/02/11 12:50:53;;;;;;;6.97;4.58;;;;;;;15.89;32.45;95916.11;1724309;82;21526;-74
2022/02/11 12:53:18;;;;;;;8.65;4.58;;;;;;;16.39;32.04;95913.92;1725333;82;21067;-74
2022/02/11 12:55:50;;;;;;;7.08;4.00;;;;;;;16.94;31.23;95915.03;1724259;82;20975;-74
2022/02/11 12:58:14;;;;;;;5.22;4.20;;;;;;;17.53;30.55;95917.11;1724705;82;21078;-74
2022/02/11 13:00:43;;;;;;;14.70;6.00;;;;;;;17.98;30.43;95908.63;1724497;83;21545;-74
2022/02/11 13:03:14;;;;;;;5.83;4.12;;;;;;;18.08;29.57;95905.48;1722058;83;21584;-74
2022/02/11 13:05:49;;;;;;;5.00;3.77;;;;;;;18.28;29.33;95901.95;1724260;83;21138;-74
2022/02/11 13:08:28;;;;;;;9.23;4.95;;;;;;;18.37;27.92;95900.70;1724299;83;21118;-74
2022/02/11 13:11:07;;;;;;;5.10;3.72;;;;;;;18.68;29.08;95901.98;1724115;82;21509;-74
2022/02/11 13:13:33;;;;;;;4.70;3.45;;;;;;;18.45;27.31;95901.21;1724339;82;21061;-74
2022/02/11 13:16:03;;;;;;;5.53;3.52;;;;;;;18.35;29.27;95898.08;1724211;83;21018;-73
2022/02/11 13:18:35;;;;;;;5.40;4.17;;;;;;;18.93;29.05;95899.94;1724263;83;21058;-75
2022/02/11 13:21:09;;;;;;;5.05;3.30;;;;;;;18.85;27.55;95903.45;1724406;83;21502;-82
2022/02/11 13:23:35;;;;;;;5.20;4.12;;;;;;;19.20;27.85;95900.45;1724358;82;21535;-78
2022/02/11 13:26:12;;;;;;;11.03;6.33;;;;;;;19.00;27.79;95905.41;1724148;82;20998;-78
2022/02/11 13:28:49;;;;;;;8.88;5.17;;;;;;;18.72;28.00;95911.12;1724819;82;21511;-76
2022/02/11 13:31:17;;;;;;;9.93;5.12;;;;;;;18.50;28.07;95913.03;1723972;82;21102;-76
2022/02/11 13:33:46;;;;;;;9.38;6.17;;;;;;;18.51;29.19;95905.41;1723821;83;20993;-76
2022/02/11 13:36:25;;;;;;;11.57;5.70;;;;;;;18.53;28.30;95915.09;1724409;83;20996;-76
2022/02/11 13:38:52;;;;;;;16.70;9.78;;;;;;;18.76;28.54;95906.05;1724336;82;21028;-77
2022/02/11 13:41:29;;;;;;;17.60;11.48;;;;;;;18.91;28.24;95904.96;1724027;82;20969;-73
2022/02/11 13:44:08;;;;;;;30.37;19.12;;;;;;;19.17;28.09;95907.26;1724326;83;21025;-75
2022/02/11 13:46:41;;;;;;;29.45;18.48;;;;;;;19.43;27.66;95907.37;1724310;83;21077;-78
2022/02/11 13:49:15;;;;;;;16.17;11.00;;;;;;;19.57;27.93;95913.84;1724303;83;21020;-79
2022/02/11 13:51:43;;;;;;;19.52;14.13;;;;;;;19.54;26.79;95906.84;1724346;83;21499;-78
2022/02/11 13:54:16;;;;;;;19.92;15.85;;;;;;;19.22;27.73;95913.26;1719930;83;21088;-77
2022/02/11 13:56:46;;;;;;;9.88;7.22;;;;;;;18.84;28.13;95916.87;1723941;83;21032;-76
2022/02/11 13:59:26;;;;;;;11.03;8.53;;;;;;;18.52;28.79;95914.70;1724495;82;21003;-75
2022/02/11 14:02:03;;;;;;;9.18;6.12;;;;;;;18.51;29.15;95924.97;1724438;82;21027;-74
2022/02/11 14:04:33;;;;;;;8.15;6.00;;;;;;;18.44;28.46;95915.96;1721082;83;21542;-75
2022/02/11 14:06:59;;;;;;;12.07;6.17;;;;;;;18.38;29.11;95925.98;1716064;84;21037;-75
2022/02/11 14:09:35;;;;;;;12.55;7.22;;;;;;;18.31;28.45;95919.64;1716095;84;21064;-76
2022/02/11 14:12:16;;;;;;;6.25;4.80;;;;;;;17.62;30.33;95938.56;1716164;84;21027;-75
2022/02/11 14:14:57;;;;;;;10.60;7.15;;;;;;;16.93;32.48;95935.93;1716519;84;21515;-76
2022/02/11 14:17:26;;;;;;;9.73;6.03;;;;;;;16.32;31.66;95942.55;1716376;83;21068;-75
2022/02/11 14:19:53;;;;;;;17.45;13.48;;;;;;;15.39;33.70;95948.34;1716338;84;21009;-75
2022/02/11 14:22:19;;;;;;;17.40;9.00;;;;;;;14.49;35.67;95945.67;1716402;83;21025;-75
2022/02/11 14:24:46;;;;;;;40.52;17.87;;;;;;;13.80;37.08;95960.77;1716604;84;21064;-77
2022/02/11 14:27:12;;;;;;;40.38;18.98;;;;;;;13.14;38.50;95954.84;1716170;83;21028;-77
2022/02/11 14:29:39;;;;;;;21.95;13.38;;;;;;;12.60;39.65;95952.05;1716073;83;21044;-77
2022/02/11 14:32:07;;;;;;;10.30;7.80;;;;;;;12.15;40.28;95960.00;1716089;84;21124;-77
2022/02/11 14:34:34;;;;;;;15.08;8.30;;;;;;;11.67;40.48;95962.13;1716414;83;21001;-77
2022/02/11 14:37:02;;;;;;;13.22;8.18;;;;;;;11.40;42.51;95963.45;1716327;83;20997;-77
2022/02/11 14:39:29;;;;;;;17.05;12.37;;;;;;;10.90;45.16;95970.35;1716798;83;21108;-76
2022/02/11 14:42:00;;;;;;;10.80;7.92;;;;;;;10.43;46.09;95970.96;1716099;83;20981;-76
2022/02/11 14:44:27;;;;;;;6.97;3.83;;;;;;;10.00;46.53;95976.68;1716146;84;21486;-76
2022/02/11 14:46:58;;;;;;;6.47;3.67;;;;;;;9.72;48.66;95979.13;1716311;84;21028;-76
2022/02/11 14:49:26;;;;;;;6.62;3.58;;;;;;;9.49;48.82;95976.70;1716385;83;21471;-77
2022/02/11 14:51:58;;;;;;;5.12;3.20;;;;;;;9.12;49.29;95985.31;1716111;83;21037;-76
2022/02/11 14:54:25;;;;;;;6.35;2.90;;;;;;;8.73;50.32;95983.36;1715483;84;21049;-77
2022/02/11 14:56:55;;;;;;;5.12;3.02;;;;;;;8.38;51.74;95985.67;1716196;83;21009;-76
2022/02/11 14:59:22;;;;;;;6.08;2.85;;;;;;;8.01;52.33;95988.84;1716573;83;21029;-76
2022/02/11 15:01:51;;;;;;;4.45;2.58;;;;;;;7.73;54.11;95988.89;1716231;83;21033;-75
2022/02/11 15:04:18;;;;;;;6.22;3.20;;;;;;;7.44;56.18;95988.93;1716024;83;21096;-76
2022/02/11 15:06:47;;;;;;;7.97;2.80;;;;;;;7.08;54.75;95991.98;1716674;84;21060;-76
2022/02/11 15:09:14;;;;;;;7.50;4.30;;;;;;;6.91;56.60;95994.56;1716458;84;21021;-76
2022/02/11 15:11:42;;;;;;;6.77;3.70;;;;;;;6.74;56.67;96000.20;1716276;83;21025;-76
2022/02/11 15:14:10;;;;;;;3.23;2.53;;;;;;;6.65;56.47;95999.75;1716568;83;21012;-76
2022/02/11 15:16:37;;;;;;;5.27;3.87;;;;;;;6.16;61.50;96007.40;1716369;84;21009;-76
2022/02/11 15:19:08;;;;;;;4.87;3.37;;;;;;;6.06;59.37;96009.09;1716400;83;20990;-76
2022/02/11 15:21:36;;;;;;;5.30;2.70;;;;;;;6.10;59.52;96008.69;1716604;84;21024;-76
2022/02/11 15:24:03;;;;;;;4.87;2.50;;;;;;;6.07;60.85;96011.27;1716585;83;21025;-76